Headlee Ranch, South Dakota
Current Conditions -  °F | °C
As of 8:55 PM on Saturday 20 Dec 2014 (Local Time) from KPHP Reporting Station
Overcast Overcast  
Wind Chill: -4°   Ceiling: 10000
Heat Index: -1°   Visibility: 10mi
Dew Point: -4°   Wind: 7mph
Humidity: 79%   Direction: 270°W
Pressure: 29.85"   Gusts: NA
Location:  43.7587°N, 101.898°W
Report Text: KPHP 210355Z AUTO 27006KT 10SM OVC100 M01/M04 A2985 RMK AO2 SLP129 T10061039
Loading
Personal Weather Stations






























Interactive Weather Map New forecast layout! Learn more

10-Day Weather Forecast

Advertisements
Track Severe Weather on mobile